Terminal Aerodrome Forecast
Issued by NWS Mt. Holly, NJ

Home | Current Version | Previous Version | Text Only | Print | Product List | Glossary On
Versions: 1 2 3 4 5 6 7 8 9 10 11 12 13 14 15 16 17 18 19
822
FTUS41 KPHI 242358 AAA
TAFILG
TAF AMD
KILG 242358Z 2500/2524 22005KT P6SM FEW070 OVC250
     FM250200 21005KT P6SM SCT100 BKN250 WS020/24040KT
     FM250900 24008KT P6SM BKN045
     FM252200 33009KT P6SM OVC040 PROB30 2522/2524 5SM -SHRA OVC020=

USA.gov is the U.S. government's official web portal to all federal, state and local government web resources and services.